createdAt,value
2023-02-25T00:02:31.860Z,4.76
2023-02-25T00:07:35.206Z,4.70
2023-02-25T00:12:38.972Z,4.64
2023-02-25T00:17:44.091Z,4.59
2023-02-25T00:22:47.327Z,4.56
2023-02-25T00:27:50.930Z,4.54
2023-02-25T00:32:54.095Z,4.50
2023-02-25T00:38:13.841Z,4.50
2023-02-25T00:43:18.703Z,4.55
2023-02-25T00:48:22.433Z,4.64
2023-02-25T00:53:26.167Z,4.80
2023-02-25T00:58:29.383Z,4.95
2023-02-25T01:03:33.317Z,4.97
2023-02-25T01:08:37.406Z,4.88
2023-02-25T01:13:41.202Z,4.82
2023-02-25T01:18:46.607Z,4.75
2023-02-25T01:23:56.965Z,4.70
2023-02-25T01:29:01.345Z,4.63
2023-02-25T01:34:06.689Z,4.58
2023-02-25T01:39:10.474Z,4.59
2023-02-25T01:44:13.680Z,4.63
2023-02-25T01:49:19.272Z,4.65
2023-02-25T01:54:22.670Z,4.67
2023-02-25T01:59:28.039Z,4.71
2023-02-25T02:04:31.892Z,4.71
2023-02-25T02:09:35.258Z,4.65
2023-02-25T02:14:42.228Z,4.59
2023-02-25T02:19:48.218Z,4.54
2023-02-25T02:25:11.680Z,4.50
2023-02-25T02:30:21.889Z,4.45
2023-02-25T02:35:37.289Z,4.39
2023-02-25T02:40:52.320Z,4.40
2023-02-25T02:45:59.800Z,4.43
2023-02-25T02:51:06.404Z,4.49
2023-02-25T02:56:12.728Z,4.58
2023-02-25T03:01:18.516Z,4.66
2023-02-25T03:06:25.962Z,4.68
2023-02-25T03:11:29.643Z,4.65
2023-02-25T03:16:41.100Z,4.64
2023-02-25T03:21:49.882Z,4.59
2023-02-25T03:26:53.587Z,4.48
2023-02-25T03:32:19.860Z,4.42
2023-02-25T03:37:26.023Z,4.34
2023-02-25T03:42:33.863Z,4.26
2023-02-25T03:47:38.651Z,4.21
2023-02-25T03:52:42.266Z,4.23
2023-02-25T03:57:55.328Z,4.26
2023-02-25T04:02:58.576Z,4.23
2023-02-25T04:08:02.374Z,4.22
2023-02-25T04:13:13.320Z,4.13
2023-02-25T04:18:17.445Z,4.00
2023-02-25T04:23:21.125Z,3.89
2023-02-25T04:28:24.968Z,3.81
2023-02-25T04:33:28.112Z,3.75
2023-02-25T04:38:31.330Z,3.69
2023-02-25T04:43:34.579Z,3.66
2023-02-25T04:48:39.609Z,3.63
2023-02-25T04:53:42.844Z,3.66
2023-02-25T04:58:46.394Z,3.70
2023-02-25T05:03:49.544Z,3.69
2023-02-25T05:08:53.165Z,3.68
2023-02-25T05:13:57.403Z,3.65
2023-02-25T05:19:00.638Z,3.62
2023-02-25T05:24:04.253Z,3.64
2023-02-25T05:29:07.563Z,3.62
2023-02-25T05:34:11.796Z,3.55
2023-02-25T05:39:15.036Z,3.52
2023-02-25T05:44:18.661Z,3.49
2023-02-25T05:49:21.966Z,3.43
2023-02-25T05:54:25.584Z,3.40
2023-02-25T05:59:28.900Z,3.40
2023-02-25T06:04:32.126Z,3.41
2023-02-25T06:09:36.380Z,3.49
2023-02-25T06:14:39.764Z,3.57
2023-02-25T06:19:43.423Z,3.65
2023-02-25T06:24:46.591Z,3.75
2023-02-25T06:29:49.685Z,3.79
2023-02-25T06:34:52.768Z,3.80
2023-02-25T06:39:56.090Z,3.74
2023-02-25T06:44:59.541Z,3.67
2023-02-25T06:50:03.020Z,3.64
2023-02-25T06:55:07.009Z,3.62
2023-02-25T07:00:10.923Z,3.61
2023-02-25T07:05:14.073Z,3.67
2023-02-25T07:10:17.298Z,3.75
2023-02-25T07:15:21.324Z,3.84
2023-02-25T07:20:24.613Z,3.93
2023-02-25T07:25:27.896Z,4.00
2023-02-25T07:30:31.250Z,4.06
2023-02-25T07:35:34.783Z,4.06
2023-02-25T07:40:39.707Z,4.07
2023-02-25T07:45:43.149Z,4.12
2023-02-25T07:50:46.803Z,4.18
2023-02-25T07:55:50.675Z,4.17
2023-02-25T08:00:54.254Z,4.20
2023-02-25T08:05:57.726Z,4.25
2023-02-25T08:11:04.819Z,4.34
2023-02-25T08:16:09.370Z,4.49
2023-02-25T08:21:18.225Z,4.64
2023-02-25T08:26:23.662Z,4.72
2023-02-25T08:31:27.510Z,4.77
2023-02-25T08:36:31.464Z,4.88
2023-02-25T08:41:35.197Z,5.01
2023-02-25T08:46:38.584Z,5.09
2023-02-25T08:51:42.003Z,5.09
2023-02-25T08:56:45.526Z,5.06
2023-02-25T09:01:50.502Z,5.13
2023-02-25T09:06:54.391Z,5.23
2023-02-25T09:11:57.748Z,5.26
2023-02-25T09:17:04.838Z,5.37
2023-02-25T09:22:09.186Z,5.54
2023-02-25T09:27:12.581Z,5.66
2023-02-25T09:32:20.374Z,5.83
2023-02-25T09:37:23.729Z,5.94
2023-02-25T09:42:30.274Z,5.99
2023-02-25T09:47:38.943Z,5.99
2023-02-25T09:52:43.224Z,6.04
2023-02-25T09:57:54.428Z,6.05
2023-02-25T10:03:05.541Z,6.11
2023-02-25T10:08:17.440Z,6.17
2023-02-25T10:13:20.722Z,6.14
2023-02-25T10:18:42.305Z,6.08
2023-02-25T10:23:48.572Z,5.98
2023-02-25T10:28:55.282Z,5.83
2023-02-25T10:34:03.983Z,5.64
2023-02-25T10:39:10.198Z,5.60
2023-02-25T10:44:13.689Z,5.61
2023-02-25T10:49:25.916Z,5.64
2023-02-25T10:54:34.034Z,5.64
2023-02-25T10:59:39.457Z,5.64
2023-02-25T11:04:43.055Z,5.52
2023-02-25T11:09:46.368Z,5.39
2023-02-25T11:14:49.822Z,5.37
2023-02-25T11:19:58.708Z,5.43
2023-02-25T11:25:04.480Z,5.62
2023-02-25T11:30:36.588Z,5.82
2023-02-25T11:35:40.674Z,5.97
2023-02-25T11:40:45.655Z,6.10
2023-02-25T11:45:57.677Z,6.24
2023-02-25T11:51:10.309Z,6.28
2023-02-25T11:56:19.789Z,6.24
2023-02-25T12:01:25.688Z,5.97
2023-02-25T12:06:41.438Z,5.67
2023-02-25T12:11:44.793Z,5.44
2023-02-25T12:16:53.986Z,5.49
2023-02-25T12:22:04.261Z,5.52
2023-02-25T12:27:16.226Z,5.40
2023-02-25T12:32:22.522Z,5.36
2023-02-25T12:37:28.657Z,5.42
2023-02-25T12:42:31.796Z,5.54
2023-02-25T12:47:38.140Z,5.69
2023-02-25T12:52:50.796Z,5.89
2023-02-25T12:57:57.398Z,6.03
2023-02-25T13:03:23.279Z,6.07
2023-02-25T13:08:37.678Z,5.95
2023-02-25T13:13:53.452Z,5.77
2023-02-25T13:18:56.612Z,5.65
2023-02-25T13:24:20.286Z,5.61
2023-02-25T13:29:52.798Z,5.68
2023-02-25T13:35:15.056Z,5.64
2023-02-25T13:40:20.722Z,5.54
2023-02-25T13:45:26.947Z,5.45
2023-02-25T13:50:42.236Z,5.46
2023-02-25T13:55:57.540Z,5.45
2023-02-25T14:01:16.639Z,5.48
2023-02-25T14:06:38.360Z,5.53
2023-02-25T14:11:57.789Z,5.64
2023-02-25T14:17:22.699Z,5.65
2023-02-25T14:22:28.855Z,5.57
2023-02-25T14:27:44.940Z,5.47
2023-02-25T14:33:08.397Z,5.39
2023-02-25T14:38:35.995Z,5.32
2023-02-25T14:43:39.348Z,5.29
2023-02-25T14:48:54.971Z,5.32
2023-02-25T14:54:18.759Z,5.27
2023-02-25T14:59:34.267Z,5.19
2023-02-25T15:04:40.092Z,5.09
2023-02-25T15:10:08.830Z,4.99
2023-02-25T15:15:35.294Z,4.87
2023-02-25T15:20:42.146Z,4.84
2023-02-25T15:25:53.359Z,4.84
2023-02-25T15:31:02.744Z,4.86
2023-02-25T15:36:21.723Z,4.92
2023-02-25T15:41:28.133Z,4.91
2023-02-25T15:46:34.900Z,4.89
2023-02-25T15:51:41.512Z,4.86
2023-02-25T15:56:47.524Z,4.79
2023-02-25T16:01:50.674Z,4.75
2023-02-25T16:06:54.609Z,4.73
2023-02-25T16:12:02.926Z,4.73
2023-02-25T16:17:18.342Z,4.71
2023-02-25T16:23:30.209Z,4.80
2023-02-25T16:29:12.627Z,4.80
2023-02-25T16:35:41.557Z,4.76
2023-02-25T16:41:59.295Z,4.66
2023-02-25T16:48:01.114Z,4.58
2023-02-25T16:53:58.256Z,4.51
2023-02-25T17:00:23.263Z,4.49
2023-02-25T17:19:23.007Z,4.22
2023-02-25T17:24:35.808Z,4.27
2023-02-25T17:30:05.623Z,4.34
2023-02-25T17:35:09.527Z,4.44
2023-02-25T17:40:21.657Z,4.45
2023-02-25T17:46:28.210Z,4.42
2023-02-25T17:51:57.839Z,4.33
2023-02-25T17:57:06.749Z,4.29
2023-02-25T18:02:32.991Z,4.27
2023-02-25T18:07:38.188Z,4.16
2023-02-25T18:12:47.884Z,4.07
2023-02-25T18:17:56.322Z,4.02
2023-02-25T18:23:05.195Z,4.03
2023-02-25T18:28:20.214Z,4.05
2023-02-25T18:33:31.639Z,4.03
2023-02-25T18:39:02.000Z,4.03
2023-02-25T18:44:14.311Z,4.02
2023-02-25T18:49:40.992Z,4.03
2023-02-25T18:54:44.514Z,4.05
2023-02-25T19:00:32.180Z,4.09
2023-02-25T19:05:58.255Z,4.17
2023-02-25T19:11:24.871Z,4.19
2023-02-25T19:16:42.899Z,4.15
2023-02-25T19:21:47.871Z,4.05
2023-02-25T19:26:51.076Z,3.96
2023-02-25T19:32:19.246Z,3.93
2023-02-25T19:37:23.065Z,3.91
2023-02-25T19:42:29.570Z,3.87
2023-02-25T19:47:49.498Z,3.83
2023-02-25T19:52:54.432Z,3.81
2023-02-25T19:58:07.966Z,3.81
2023-02-25T20:03:11.851Z,3.84
2023-02-25T20:08:16.757Z,3.86
2023-02-25T20:13:20.242Z,3.84
2023-02-25T20:18:23.418Z,3.79
2023-02-25T20:23:29.274Z,3.77
2023-02-25T20:28:32.980Z,3.78
2023-02-25T20:34:10.224Z,3.78
2023-02-25T20:40:30.704Z,3.73
2023-02-25T20:46:00.993Z,3.70
2023-02-25T20:51:40.501Z,3.70
2023-02-25T20:56:47.170Z,3.70
2023-02-25T21:02:01.994Z,3.69
2023-02-25T21:07:25.530Z,3.62
2023-02-25T21:12:46.061Z,3.54
2023-02-25T21:18:13.033Z,3.49
2023-02-25T21:23:41.263Z,3.42
2023-02-25T21:28:47.606Z,3.40
2023-02-25T21:33:51.274Z,3.37
2023-02-25T21:38:56.993Z,3.34
2023-02-25T21:44:03.212Z,3.27
2023-02-25T21:49:06.610Z,3.22
2023-02-25T21:54:14.268Z,3.21
2023-02-25T21:59:37.814Z,3.19
2023-02-25T22:04:41.169Z,3.14
2023-02-25T22:09:44.358Z,3.04
2023-02-25T22:14:47.799Z,2.99
2023-02-25T22:19:51.115Z,2.99
2023-02-25T22:25:05.506Z,3.04
2023-02-25T22:30:09.224Z,3.02
2023-02-25T22:35:12.563Z,2.93
2023-02-25T22:40:18.610Z,2.86
2023-02-25T22:45:22.084Z,2.81
2023-02-25T22:50:29.203Z,2.76
2023-02-25T22:55:33.959Z,2.70
2023-02-25T23:00:42.263Z,2.67
2023-02-25T23:05:45.632Z,2.67
2023-02-25T23:10:49.887Z,2.66
2023-02-25T23:16:04.897Z,2.65
2023-02-25T23:21:12.413Z,2.57
2023-02-25T23:26:18.643Z,2.50
2023-02-25T23:31:59.268Z,2.47
2023-02-25T23:37:13.817Z,2.50
2023-02-25T23:43:09.884Z,2.52
2023-02-25T23:48:16.486Z,2.49
2023-02-25T23:53:30.418Z,2.47
2023-02-25T23:58:57.090Z,2.44
